M I D A S
Marine Information and Data Acquisition System
Tripno 2114 of the Zeeleeuw from 2011-06-01 08:00:57 to 2011-06-01 09:49:34
Back to CruiseResearch ActivitiesStationsMapUnderway DataData graphs

EquipmentUnitsComment
TimeDGPSUTC
LatitudeDGPSDM.mWGS84
LongitudeDGPSDM.mWGS84
HeadingGyrodeg 
SOGDGPSknotsSpeed over ground
COGDGPSdegCourse over ground
DepthEcho soundermeters200 kHz
Missing or incorrect values are displayed as -999
Navigation data collected by the RV Zeeleeuw from 2011-06-01 07:30:13 to 2011-06-01 09:49:34
                                                                                    Next 1000 lines
Time Latitude Longitude Heading SOG COG Depth
2011-06-01 07:30:23 51°13.634 2°56.019 111.1 0.1 224 -999
2011-06-01 07:30:28 51°13.634 2°56.019 109.7 0.3 267 -999
2011-06-01 07:30:33 51°13.634 2°56.017 108.6 0.8 282 -999
2011-06-01 07:30:38 51°13.634 2°56.014 108.2 1.4 282 -999
2011-06-01 07:30:43 51°13.635 2°56.01 108.1 1.9 285 6.3
2011-06-01 07:30:48 51°13.636 2°56.006 108.2 2.3 287 6.9
2011-06-01 07:30:53 51°13.637 2°56 108.6 2.7 287 6.9
2011-06-01 07:30:58 51°13.638 2°55.994 109.9 3 290 -999
2011-06-01 07:31:04 51°13.64 2°55.985 110.9 3.3 290 -999
2011-06-01 07:31:08 51°13.642 2°55.979 111.1 3.6 292 -999
2011-06-01 07:31:13 51°13.644 2°55.971 111.4 3.9 291 -999
2011-06-01 07:31:18 51°13.646 2°55.962 111.5 4.2 292 -999
2011-06-01 07:31:23 51°13.648 2°55.953 111.6 4.4 291 -999
2011-06-01 07:31:28 51°13.65 2°55.944 111.6 4.4 291 -999
2011-06-01 07:31:33 51°13.653 2°55.935 111.2 4.3 290 -999
2011-06-01 07:31:38 51°13.655 2°55.927 110.9 4.2 290 -999
2011-06-01 07:31:43 51°13.656 2°55.918 110.4 4.1 290 -999
2011-06-01 07:31:48 51°13.658 2°55.91 110.3 4 289 -999
2011-06-01 07:31:53 51°13.66 2°55.902 110.3 3.9 289 -999
2011-06-01 07:31:58 51°13.662 2°55.893 110.3 3.9 289 -999
2011-06-01 07:32:04 51°13.664 2°55.884 110.5 3.8 289 -999
2011-06-01 07:32:09 51°13.665 2°55.876 111.1 3.8 289 -999
2011-06-01 07:32:14 51°13.667 2°55.869 111.6 3.7 290 -999
2011-06-01 07:32:18 51°13.668 2°55.863 112.1 3.7 289 -999
2011-06-01 07:32:24 51°13.671 2°55.853 112.5 3.7 290 -999
2011-06-01 07:32:29 51°13.673 2°55.845 112.7 3.8 290 -999
2011-06-01 07:32:34 51°13.675 2°55.837 113.2 4 292 -999
2011-06-01 07:32:39 51°13.677 2°55.829 113.6 4.1 292 -999
2011-06-01 07:32:44 51°13.679 2°55.821 113.9 4 293 -999
2011-06-01 07:32:49 51°13.681 2°55.813 114.4 3.9 292 -999
2011-06-01 07:32:54 51°13.683 2°55.805 114.8 3.9 293 -999
2011-06-01 07:32:59 51°13.684 2°55.797 114.8 3.9 292 -999
2011-06-01 07:33:04 51°13.686 2°55.789 114.7 3.7 293 -999
2011-06-01 07:33:09 51°13.688 2°55.782 114.6 3.6 292 -999
2011-06-01 07:33:14 51°13.69 2°55.775 114.2 3.4 293 -999
2011-06-01 07:33:19 51°13.692 2°55.768 113.8 3.3 292 -999
2011-06-01 07:33:24 51°13.694 2°55.762 113.4 3.2 292 -999
2011-06-01 07:33:29 51°13.695 2°55.756 113 3.1 291 11
2011-06-01 07:33:33 51°13.696 2°55.751 112.8 2.9 291 11.3
2011-06-01 07:33:38 51°13.698 2°55.745 112.6 2.8 290 11.2
2011-06-01 07:33:43 51°13.699 2°55.74 112.4 2.6 291 11.1
2011-06-01 07:33:48 51°13.7 2°55.735 112.4 2.3 290 11
2011-06-01 07:33:53 51°13.701 2°55.731 112 1.9 290 11.1
2011-06-01 07:33:58 51°13.702 2°55.728 111.1 1.6 291 11.3
2011-06-01 07:34:02 51°13.702 2°55.726 109.7 1.4 292 11.6
2011-06-01 07:34:07 51°13.702 2°55.725 108.4 0.9 290 12
2011-06-01 07:34:12 51°13.703 2°55.724 106.8 0.2 331 12.1
2011-06-01 07:34:17 51°13.703 2°55.726 104.3 0.7 84 12
2011-06-01 07:34:22 51°13.703 2°55.729 99.7 1.3 82 11.9
2011-06-01 07:34:26 51°13.703 2°55.733 92.8 1.9 84 11.6
2011-06-01 07:34:31 51°13.704 2°55.737 84.7 1.9 73 11.6
2011-06-01 07:34:36 51°13.705 2°55.74 76.8 1.7 72 11.3
2011-06-01 07:34:41 51°13.706 2°55.743 72.4 1.1 69 11.4
2011-06-01 07:34:46 51°13.706 2°55.744 69.1 0.8 70 11.4
2011-06-01 07:34:50 51°13.706 2°55.745 65.8 0.3 92 11.4
2011-06-01 07:34:56 51°13.705 2°55.745 62.9 0.2 201 11.4
2011-06-01 07:35:01 51°13.705 2°55.743 60.7 0.7 223 11.5
2011-06-01 07:35:05 51°13.704 2°55.741 59.2 1 232 11.5
2011-06-01 07:35:10 51°13.703 2°55.74 58.1 1.1 231 11.3
2011-06-01 07:35:15 51°13.702 2°55.738 57.6 1 231 11.6
2011-06-01 07:35:20 51°13.701 2°55.736 57.6 1 234 5.6
2011-06-01 07:35:25 51°13.701 2°55.736 57.6 0.4 225 -999
2011-06-01 07:35:30 51°13.701 2°55.737 56.7 0.6 53 -999
2011-06-01 07:35:36 51°13.703 2°55.74 51.5 1.4 45 -999
2011-06-01 07:35:42 51°13.706 2°55.743 44.6 2.1 40 7.2
2011-06-01 07:35:46 51°13.709 2°55.745 38.3 2.4 32 11.4
2011-06-01 07:35:51 51°13.712 2°55.747 31.8 2.4 25 11.4
2011-06-01 07:35:56 51°13.715 2°55.75 25.3 2.4 24 11.4
2011-06-01 07:36:01 51°13.718 2°55.751 19.5 2.3 16 11.3
2011-06-01 07:36:06 51°13.721 2°55.752 14.5 1.9 16 11.1
2011-06-01 07:36:10 51°13.722 2°55.753 11.4 1.4 18 10.8
2011-06-01 07:36:15 51°13.723 2°55.754 8.1 0.9 25 10.7
2011-06-01 07:36:20 51°13.723 2°55.754 4.4 0.3 41 10.7
2011-06-01 07:36:26 51°13.722 2°55.755 1.3 0.4 133 10.8
2011-06-01 07:36:30 51°13.722 2°55.755 359.2 0.7 161 10.7
2011-06-01 07:36:35 51°13.72 2°55.756 357.9 1.2 165 10.9
2011-06-01 07:36:40 51°13.718 2°55.757 356.9 1.6 168 11.1
2011-06-01 07:36:46 51°13.715 2°55.758 356.5 1.8 169 -999
2011-06-01 07:36:51 51°13.713 2°55.758 356.2 1.6 169 -999
2011-06-01 07:36:57 51°13.71 2°55.759 356.2 1.5 172 -999
2011-06-01 07:37:02 51°13.709 2°55.76 356.2 1 165 -999
2011-06-01 07:37:08 51°13.708 2°55.76 355.7 0.6 169 -999
2011-06-01 07:37:13 51°13.708 2°55.761 354 0.2 129 -999
2011-06-01 07:37:18 51°13.708 2°55.761 351.3 0.3 4 -999
2011-06-01 07:37:24 51°13.709 2°55.76 348.1 0.7 353 -999
2011-06-01 07:37:29 51°13.711 2°55.76 345.2 1.1 346 -999
2011-06-01 07:37:33 51°13.713 2°55.759 342.7 1.6 343 -999
2011-06-01 07:37:38 51°13.716 2°55.757 340.3 2.6 340 -999
2011-06-01 07:37:44 51°13.721 2°55.754 337.5 3.4 335 -999
2011-06-01 07:37:48 51°13.725 2°55.75 334.7 3.9 331 -999
2011-06-01 07:37:53 51°13.731 2°55.745 332.1 4.6 330 -999
2011-06-01 07:37:58 51°13.736 2°55.739 330.3 4.8 328 10.2
2011-06-01 07:38:03 51°13.742 2°55.734 328.9 4.9 327 9.9
2011-06-01 07:38:08 51°13.748 2°55.727 328.2 4.9 324 9.7
2011-06-01 07:38:13 51°13.753 2°55.721 326.4 4.9 323 9.3
2011-06-01 07:38:18 51°13.758 2°55.714 324.5 4.9 322 9.1
2011-06-01 07:38:22 51°13.763 2°55.708 323.1 5 321 9.2
2011-06-01 07:38:27 51°13.768 2°55.701 322.2 5.1 320 9.7
2011-06-01 07:38:32 51°13.774 2°55.694 321.9 5.1 320 10
2011-06-01 07:38:37 51°13.779 2°55.686 321.8 5.2 320 10.1
2011-06-01 07:38:42 51°13.785 2°55.679 321.8 5.2 321 10.2
2011-06-01 07:38:47 51°13.79 2°55.672 321.9 5.2 321 10.3
2011-06-01 07:38:52 51°13.796 2°55.665 322.7 5.3 323 10.3
2011-06-01 07:38:56 51°13.801 2°55.66 323.8 5.3 324 10.4
2011-06-01 07:39:01 51°13.807 2°55.653 325.7 5.3 326 10.4
2011-06-01 07:39:06 51°13.813 2°55.647 328.1 5.3 328 10.3
2011-06-01 07:39:11 51°13.82 2°55.641 330.4 5.3 330 10.3
2011-06-01 07:39:16 51°13.826 2°55.636 332.2 5.3 331 10.2
2011-06-01 07:39:21 51°13.833 2°55.63 333.5 5.3 333 10.2
2011-06-01 07:39:26 51°13.839 2°55.625 335.3 5.3 334 10.2
2011-06-01 07:39:30 51°13.845 2°55.621 336.2 5.3 334 10.1
2011-06-01 07:39:35 51°13.851 2°55.616 336.8 5.4 335 10
2011-06-01 07:39:40 51°13.858 2°55.61 337.2 5.4 335 9.9
2011-06-01 07:39:45 51°13.865 2°55.605 337.6 5.5 335 10.2
2011-06-01 07:39:50 51°13.872 2°55.6 338.1 5.5 336 10.2
2011-06-01 07:39:54 51°13.878 2°55.597 338.4 5.5 336 10.2
2011-06-01 07:40:00 51°13.886 2°55.591 338.9 5.5 337 10.1
2011-06-01 07:40:04 51°13.892 2°55.587 339.3 5.5 337 10.1
2011-06-01 07:40:10 51°13.9 2°55.581 339.8 5.5 337 10
2011-06-01 07:40:14 51°13.906 2°55.577 340 5.5 337 10
2011-06-01 07:40:19 51°13.913 2°55.573 340.2 5.5 338 10
2011-06-01 07:40:24 51°13.92 2°55.569 340.4 5.5 338 10
2011-06-01 07:40:30 51°13.929 2°55.563 340.4 5.5 338 10
2011-06-01 07:40:34 51°13.935 2°55.559 340.5 5.5 338 10
2011-06-01 07:40:40 51°13.943 2°55.554 340.5 5.5 338 10
2011-06-01 07:40:45 51°13.951 2°55.55 340.5 5.5 338 9.9
2011-06-01 07:40:50 51°13.958 2°55.545 340 5.5 337 -999
2011-06-01 07:40:54 51°13.964 2°55.541 339.4 5.5 337 9.9
2011-06-01 07:40:59 51°13.971 2°55.536 339 5.6 336 9.9
2011-06-01 07:41:04 51°13.977 2°55.531 338.5 5.5 337 9.9
2011-06-01 07:41:10 51°13.986 2°55.525 338.2 5.5 336 9.9
2011-06-01 07:41:14 51°13.992 2°55.521 338 5.5 337 9.8
2011-06-01 07:41:19 51°13.998 2°55.516 337.9 5.5 336 9.9
2011-06-01 07:41:24 51°14.006 2°55.511 337.9 5.6 336 9.9
2011-06-01 07:41:30 51°14.014 2°55.506 338 5.5 336 9.8
2011-06-01 07:41:34 51°14.02 2°55.502 337.6 5.6 335 9.9
2011-06-01 07:41:39 51°14.027 2°55.497 337.4 5.6 335 9.8
2011-06-01 07:41:44 51°14.034 2°55.491 336.9 5.7 334 9.7
2011-06-01 07:41:50 51°14.043 2°55.485 336.6 5.8 335 9.8
2011-06-01 07:41:54 51°14.049 2°55.481 336.3 5.9 334 9.8
2011-06-01 07:41:59 51°14.056 2°55.475 336.3 6 335 9.8
2011-06-01 07:42:05 51°14.065 2°55.468 336.3 6.1 335 9.8
2011-06-01 07:42:10 51°14.073 2°55.462 336.5 6.2 336 9.8
2011-06-01 07:42:14 51°14.079 2°55.458 336.9 6.2 335 9.8
2011-06-01 07:42:20 51°14.089 2°55.451 336.9 6.3 335 9.8
2011-06-01 07:42:25 51°14.097 2°55.445 336.9 6.3 334 9.8
2011-06-01 07:42:30 51°14.105 2°55.439 336.6 6.3 334 9.8
2011-06-01 07:42:34 51°14.111 2°55.434 336.1 6.4 333 9.8
2011-06-01 07:42:40 51°14.121 2°55.426 335.5 6.4 334 9.8
2011-06-01 07:42:44 51°14.127 2°55.421 335.4 6.4 333 9.8
2011-06-01 07:42:50 51°14.137 2°55.413 335.4 6.5 334 9.7
2011-06-01 07:42:54 51°14.143 2°55.407 335.5 6.5 333 9.7
2011-06-01 07:43:00 51°14.154 2°55.399 335.4 6.9 333 -999
2011-06-01 07:43:05 51°14.162 2°55.392 335 7.3 332 -999
2011-06-01 07:43:10 51°14.172 2°55.384 334.7 7.7 332 -999
2011-06-01 07:43:16 51°14.184 2°55.374 334.5 8 332 -999
2011-06-01 07:43:21 51°14.194 2°55.365 333.9 8.3 331 9.6
2011-06-01 07:43:26 51°14.204 2°55.356 333 8.5 330 -999
2011-06-01 07:43:31 51°14.214 2°55.346 332.1 8.7 329 9.7
2011-06-01 07:43:36 51°14.224 2°55.336 331.1 8.8 328 9.7
2011-06-01 07:43:41 51°14.235 2°55.326 330.6 9 329 9.7
2011-06-01 07:43:46 51°14.246 2°55.315 330.9 9.1 329 9.6
2011-06-01 07:43:50 51°14.255 2°55.307 331.1 9.2 328 -999
2011-06-01 07:43:55 51°14.265 2°55.295 329.8 9.3 326 9.9
2011-06-01 07:44:01 51°14.278 2°55.281 328.5 9.3 326 9.6
2011-06-01 07:44:05 51°14.287 2°55.272 328.1 9.4 326 9.6
2011-06-01 07:44:10 51°14.297 2°55.26 328.1 9.5 326 9.5
2011-06-01 07:44:16 51°14.31 2°55.246 328.1 9.5 326 9.6
2011-06-01 07:44:21 51°14.321 2°55.235 328.5 9.6 327 9.6
2011-06-01 07:44:26 51°14.333 2°55.223 329.1 9.7 327 9.4
2011-06-01 07:44:30 51°14.342 2°55.214 329.7 9.8 328 9.6
2011-06-01 07:44:35 51°14.354 2°55.203 330.4 10.1 328 9.5
2011-06-01 07:44:40 51°14.366 2°55.19 330.4 10.3 328 9.8
2011-06-01 07:44:45 51°14.378 2°55.178 329.6 10.4 327 9.4
2011-06-01 07:44:50 51°14.39 2°55.166 329.6 10.6 328 9.3
2011-06-01 07:44:55 51°14.403 2°55.153 330.1 10.7 328 9.5
2011-06-01 07:45:00 51°14.416 2°55.14 329.8 10.9 326 -999
2011-06-01 07:45:06 51°14.43 2°55.123 328.2 10.9 325 9.6
2011-06-01 07:45:10 51°14.441 2°55.113 327.4 11 325 9.7
2011-06-01 07:45:15 51°14.454 2°55.098 327 11 324 10.2
2011-06-01 07:45:20 51°14.466 2°55.084 326.9 11.1 324 -999
2011-06-01 07:45:26 51°14.481 2°55.067 326.8 11.1 324 10.1
2011-06-01 07:45:30 51°14.491 2°55.055 326.9 11.3 325 10.1
2011-06-01 07:45:35 51°14.504 2°55.041 327.4 11.3 326 10.1
2011-06-01 07:45:40 51°14.517 2°55.027 328.6 11.3 323 10.4
2011-06-01 07:45:45 51°14.529 2°55.01 328.4 11.3 319 10.8
2011-06-01 07:45:50 51°14.54 2°54.992 324.8 11.4 316 11.3
2011-06-01 07:45:54 51°14.549 2°54.978 322.4 11.5 315 11.1
2011-06-01 07:46:00 51°14.563 2°54.957 322.3 11.5 315 11.2
2011-06-01 07:46:05 51°14.574 2°54.939 321.8 11.5 314 11
2011-06-01 07:46:10 51°14.585 2°54.921 321.7 11.5 315 11.4
2011-06-01 07:46:14 51°14.594 2°54.907 322.1 11.4 316 10.9
2011-06-01 07:46:19 51°14.606 2°54.889 322.3 11.5 316 10.8
2011-06-01 07:46:25 51°14.62 2°54.867 322.6 11.7 316 10.9
2011-06-01 07:46:30 51°14.632 2°54.849 323.1 12 317 10.9
2011-06-01 07:46:34 51°14.642 2°54.835 323.8 12.1 318 11
2011-06-01 07:46:40 51°14.657 2°54.813 324 12.3 318 10.9
2011-06-01 07:46:45 51°14.67 2°54.796 325.2 12.4 320 10.9
2011-06-01 07:46:50 51°14.683 2°54.778 326.1 12.5 320 10.9
2011-06-01 07:46:54 51°14.694 2°54.764 326.8 12.6 322 10.7
2011-06-01 07:47:00 51°14.711 2°54.744 328.3 12.6 323 10.8
2011-06-01 07:47:05 51°14.725 2°54.728 329.8 12.6 325 10.7
2011-06-01 07:47:10 51°14.74 2°54.713 331.6 12.7 327 11.2
2011-06-01 07:47:14 51°14.752 2°54.701 333.2 12.7 328 10.8
2011-06-01 07:47:19 51°14.768 2°54.687 334.2 12.7 329 11.1
2011-06-01 07:47:24 51°14.783 2°54.672 334.8 12.7 329 11.1
2011-06-01 07:47:30 51°14.801 2°54.655 335.2 12.7 330 11.2
2011-06-01 07:47:34 51°14.813 2°54.644 335.6 12.7 330 11.3
2011-06-01 07:47:40 51°14.831 2°54.627 335.8 12.7 330 11.2
2011-06-01 07:47:45 51°14.847 2°54.613 335.9 12.7 330 11.3
2011-06-01 07:47:50 51°14.862 2°54.598 336.1 12.7 330 11.1
2011-06-01 07:47:54 51°14.874 2°54.587 336 12.7 329 11.2
2011-06-01 07:47:59 51°14.889 2°54.572 335.1 12.7 328 11.2
2011-06-01 07:48:04 51°14.904 2°54.557 334 12.7 327 11.3
2011-06-01 07:48:10 51°14.921 2°54.538 332.8 12.7 326 10.5
2011-06-01 07:48:14 51°14.933 2°54.525 331.7 12.7 324 10.5
2011-06-01 07:48:20 51°14.95 2°54.505 330.3 12.6 324 10.5
2011-06-01 07:48:25 51°14.964 2°54.488 329.8 12.7 322 10.6
2011-06-01 07:48:30 51°14.977 2°54.47 329.3 12.6 321 10.7
2011-06-01 07:48:34 51°14.987 2°54.454 325.9 12.6 313 10.7
2011-06-01 07:48:39 51°14.998 2°54.432 319.1 12.7 309 10.7
2011-06-01 07:48:45 51°15.011 2°54.405 314.7 12.7 307 10.7
2011-06-01 07:48:50 51°15.021 2°54.382 312.4 12.8 305 10.7
2011-06-01 07:48:54 51°15.029 2°54.363 310.7 12.8 303 10.7
2011-06-01 07:49:00 51°15.04 2°54.335 309 12.8 301 10.4
2011-06-01 07:49:05 51°15.048 2°54.31 307.4 12.8 300 9.6
2011-06-01 07:49:10 51°15.056 2°54.285 305.7 12.7 298 8.6
2011-06-01 07:49:14 51°15.063 2°54.265 304.4 12.6 297 6
2011-06-01 07:49:20 51°15.072 2°54.236 303.5 12.6 296 8
2011-06-01 07:49:25 51°15.079 2°54.21 302.7 12.6 295 8.1
2011-06-01 07:49:30 51°15.086 2°54.185 301.4 12.7 293 8.1
2011-06-01 07:49:34 51°15.092 2°54.164 300.4 12.8 293 8.4
2011-06-01 07:49:39 51°15.098 2°54.138 299.6 12.8 291 8.4
2011-06-01 07:49:44 51°15.104 2°54.111 298.9 12.8 290 8.6
2011-06-01 07:49:50 51°15.108 2°54.077 294.7 13 281 8.6
2011-06-01 07:49:54 51°15.111 2°54.054 289 13.1 279 8.6
2011-06-01 07:49:59 51°15.112 2°54.025 284.6 13.2 272 8.7
2011-06-01 07:50:05 51°15.111 2°53.99 277.4 13.2 267 8.7
2011-06-01 07:50:10 51°15.108 2°53.961 271.1 13.3 262 8.8
2011-06-01 07:50:14 51°15.106 2°53.938 267.5 13.4 261 8.9
2011-06-01 07:50:19 51°15.102 2°53.909 265.1 13.4 260 8.9
2011-06-01 07:50:24 51°15.099 2°53.88 263.7 13.5 258 9
2011-06-01 07:50:30 51°15.093 2°53.845 262 13.5 256 9.1
2011-06-01 07:50:34 51°15.089 2°53.822 259.7 13.6 254 9.2
2011-06-01 07:50:40 51°15.083 2°53.787 258 13.7 253 9.4
2011-06-01 07:50:45 51°15.077 2°53.758 256.7 13.7 252 9
2011-06-01 07:50:49 51°15.072 2°53.736 255.4 13.7 252 9.2
2011-06-01 07:50:54 51°15.066 2°53.707 254.8 13.7 251 9.3
2011-06-01 07:51:00 51°15.059 2°53.673 254.7 13.7 251 9.2
2011-06-01 07:51:04 51°15.054 2°53.65 254.5 13.6 251 9.2
2011-06-01 07:51:10 51°15.045 2°53.616 253.8 13.6 247 9.2
2011-06-01 07:51:14 51°15.039 2°53.594 250.7 13.7 246 9.2
2011-06-01 07:51:20 51°15.029 2°53.562 248.1 13.7 244 9.2
2011-06-01 07:51:24 51°15.022 2°53.54 246.1 13.7 242 9.3
2011-06-01 07:51:30 51°15.011 2°53.509 244.2 13.7 241 9.2
2011-06-01 07:51:34 51°15.003 2°53.488 242.5 13.7 239 9.3
2011-06-01 07:51:40 51°14.991 2°53.456 241.8 13.7 239 9.3
2011-06-01 07:51:45 51°14.981 2°53.43 241.1 13.7 238 9.2
2011-06-01 07:51:50 51°14.971 2°53.404 240.3 13.8 239 9.3
2011-06-01 07:51:54 51°14.963 2°53.384 240 13.8 238 9.3
2011-06-01 07:51:59 51°14.953 2°53.358 240.4 13.8 240 9.2
2011-06-01 07:52:05 51°14.942 2°53.326 242.2 13.8 242 9.4
2011-06-01 07:52:10 51°14.933 2°53.299 243.6 13.7 243 9.2
2011-06-01 07:52:14 51°14.927 2°53.277 245.4 13.7 245 9
2011-06-01 07:52:19 51°14.919 2°53.25 247.5 13.7 247 9.3
2011-06-01 07:52:25 51°14.911 2°53.216 249.7 13.7 248 9.3
2011-06-01 07:52:30 51°14.905 2°53.187 251.6 13.7 251 9.3
2011-06-01 07:52:34 51°14.9 2°53.164 253.7 13.7 251 9.3
2011-06-01 07:52:39 51°14.895 2°53.135 255.5 13.7 253 9.2
2011-06-01 07:52:44 51°14.889 2°53.107 256.4 13.6 254 9.2
2011-06-01 07:52:49 51°14.884 2°53.078 257 13.6 255 9.3
2011-06-01 07:52:54 51°14.879 2°53.049 258.1 13.6 254 9.3
2011-06-01 07:52:59 51°14.874 2°53.02 258.1 13.6 255 9.3
2011-06-01 07:53:05 51°14.868 2°52.985 258.7 13.6 255 9.3
2011-06-01 07:53:10 51°14.864 2°52.956 259.1 13.6 256 9.2
2011-06-01 07:53:14 51°14.86 2°52.932 259.2 13.6 255 9.3
2011-06-01 07:53:20 51°14.854 2°52.897 259.3 13.6 255 9.3
2011-06-01 07:53:25 51°14.85 2°52.868 259.1 13.6 255 9.2
2011-06-01 07:53:30 51°14.845 2°52.839 258.7 13.6 255 9.1
2011-06-01 07:53:34 51°14.841 2°52.816 258.5 13.6 255 9.1
2011-06-01 07:53:39 51°14.836 2°52.787 258 13.7 253 9.3
2011-06-01 07:53:45 51°14.83 2°52.752 257.7 13.6 255 9
2011-06-01 07:53:50 51°14.824 2°52.723 257.7 13.6 253 9.2
2011-06-01 07:53:54 51°14.82 2°52.7 257.6 13.6 255 9.2
2011-06-01 07:53:58 51°14.816 2°52.677 257.6 13.7 254 9.1
2011-06-01 07:54:05 51°14.808 2°52.637 257.1 13.6 253 9.1
2011-06-01 07:54:10 51°14.802 2°52.608 255.5 13.6 251 9.1
2011-06-01 07:54:14 51°14.797 2°52.586 253.7 13.6 249 9.1
2011-06-01 07:54:19 51°14.79 2°52.558 252.3 13.7 249 9.2
2011-06-01 07:54:25 51°14.781 2°52.524 251.2 13.6 248 9
2011-06-01 07:54:30 51°14.774 2°52.497 250 13.6 247 9.1
2011-06-01 07:54:34 51°14.768 2°52.475 249.9 13.7 246 9.2
2011-06-01 07:54:39 51°14.76 2°52.447 249.3 13.7 247 9.1
2011-06-01 07:54:44 51°14.752 2°52.419 249.3 13.7 246 9.2
2011-06-01 07:54:50 51°14.744 2°52.386 249.8 13.7 247 9.1
2011-06-01 07:54:54 51°14.738 2°52.364 249.8 13.7 247 9.1
2011-06-01 07:55:00 51°14.729 2°52.331 250.1 13.6 248 9.1
2011-06-01 07:55:05 51°14.722 2°52.302 251.1 13.6 248 9
2011-06-01 07:55:10 51°14.715 2°52.274 251.7 13.6 249 9
2011-06-01 07:55:14 51°14.709 2°52.252 251.4 13.6 247 9
2011-06-01 07:55:19 51°14.702 2°52.225 250.4 13.6 246 9.1
2011-06-01 07:55:24 51°14.694 2°52.197 249.4 13.5 246 9
2011-06-01 07:55:29 51°14.687 2°52.172 248.3 12.7 245 9
2011-06-01 07:55:34 51°14.68 2°52.147 248 12.2 245 9.1
2011-06-01 07:55:39 51°14.672 2°52.124 247.1 11.6 243 9.2
2011-06-01 07:55:44 51°14.665 2°52.103 245.9 10.9 242 9.2
2011-06-01 07:55:49 51°14.658 2°52.083 244 10.2 239 9.2
2011-06-01 07:55:55 51°14.649 2°52.062 241.8 9.7 238 9.3
2011-06-01 07:55:58 51°14.644 2°52.052 239.2 9.1 235 9.4
2011-06-01 07:56:04 51°14.636 2°52.033 236.5 8.7 233 9.4
2011-06-01 07:56:09 51°14.628 2°52.018 234.3 8.3 231 9.3
2011-06-01 07:56:14 51°14.621 2°52.005 232.2 8 230 9.4
2011-06-01 07:56:19 51°14.614 2°51.993 230.9 7.6 228 9.3
2011-06-01 07:56:25 51°14.606 2°51.978 229.5 7.3 228 9.3
2011-06-01 07:56:30 51°14.599 2°51.967 228.6 7.1 227 9.2
2011-06-01 07:56:35 51°14.593 2°51.956 228 6.8 226 9.4
2011-06-01 07:56:40 51°14.587 2°51.946 228 6.6 226 9.4
2011-06-01 07:56:45 51°14.58 2°51.936 227.8 6.4 226 9.3
2011-06-01 07:56:50 51°14.574 2°51.926 227.8 6.2 227 9.2
2011-06-01 07:56:55 51°14.569 2°51.916 228.5 6.1 226 9.2
2011-06-01 07:57:00 51°14.563 2°51.906 229.2 6 227 9.3
2011-06-01 07:57:05 51°14.558 2°51.896 229.8 6 228 9.3
2011-06-01 07:57:10 51°14.552 2°51.886 231.2 5.9 230 9.2
2011-06-01 07:57:15 51°14.547 2°51.876 232.7 5.9 229 9.2
2011-06-01 07:57:20 51°14.542 2°51.866 234.1 5.9 232 9.2
2011-06-01 07:57:25 51°14.537 2°51.856 235.4 5.9 232 9.1
2011-06-01 07:57:30 51°14.532 2°51.845 236.4 5.8 233 9.1
2011-06-01 07:57:35 51°14.528 2°51.835 237.4 5.8 234 9.2
2011-06-01 07:57:40 51°14.523 2°51.824 238.4 5.8 236 9.1
2011-06-01 07:57:45 51°14.518 2°51.814 239.5 5.8 236 9.1
2011-06-01 07:57:50 51°14.514 2°51.803 240.3 5.7 236 9.1
2011-06-01 07:57:55 51°14.51 2°51.792 241.3 5.7 237 9.2
2011-06-01 07:58:00 51°14.506 2°51.782 242.2 5.7 238 9
2011-06-01 07:58:05 51°14.502 2°51.771 242.9 5.7 239 9
2011-06-01 07:58:10 51°14.498 2°51.76 243.5 5.7 239 9
2011-06-01 07:58:15 51°14.494 2°51.749 244.2 5.7 240 9
2011-06-01 07:58:20 51°14.49 2°51.738 244.7 5.7 240 9.1
2011-06-01 07:58:25 51°14.486 2°51.728 245 5.7 240 9.1
2011-06-01 07:58:30 51°14.482 2°51.717 245.4 5.7 241 9
2011-06-01 07:58:35 51°14.478 2°51.706 245.5 5.7 241 8.9
2011-06-01 07:58:40 51°14.474 2°51.695 245.5 5.7 241 9.1
2011-06-01 07:58:45 51°14.47 2°51.684 245.5 5.7 240 9
2011-06-01 07:58:50 51°14.466 2°51.673 245.4 5.6 240 9
2011-06-01 07:58:55 51°14.463 2°51.662 245.3 5.7 240 8.9
2011-06-01 07:59:00 51°14.459 2°51.651 244.9 5.7 241 8.9
2011-06-01 07:59:05 51°14.455 2°51.641 244.7 5.7 240 9.1
2011-06-01 07:59:10 51°14.451 2°51.63 244.6 5.7 240 9
2011-06-01 07:59:15 51°14.447 2°51.619 244.7 5.7 240 9
2011-06-01 07:59:20 51°14.443 2°51.608 245 5.6 240 9
2011-06-01 07:59:25 51°14.439 2°51.597 245.3 5.6 241 9
2011-06-01 07:59:30 51°14.436 2°51.586 246.1 5.7 242 9
2011-06-01 07:59:35 51°14.432 2°51.576 246.9 5.6 241 8.9
2011-06-01 07:59:40 51°14.428 2°51.564 247.8 5.6 242 9
2011-06-01 07:59:45 51°14.425 2°51.554 248.3 5.5 243 9
2011-06-01 07:59:50 51°14.422 2°51.543 249.3 5.5 244 9
2011-06-01 07:59:55 51°14.418 2°51.532 250.5 5.4 245 8.9
2011-06-01 08:00:00 51°14.415 2°51.521 251.1 5.4 246 8.9
2011-06-01 08:00:05 51°14.412 2°51.51 252.1 5.3 246 9
2011-06-01 08:00:10 51°14.409 2°51.5 253.2 5.3 248 9
2011-06-01 08:00:15 51°14.407 2°51.489 254.6 5.3 248 8.9
2011-06-01 08:00:19 51°14.404 2°51.48 255.6 5.2 248 8.8
2011-06-01 08:00:25 51°14.402 2°51.467 256.3 5.2 250 8.9
2011-06-01 08:00:30 51°14.399 2°51.457 257.3 5.1 250 8.9
2011-06-01 08:00:35 51°14.397 2°51.446 258.7 5.1 251 8.9
2011-06-01 08:00:40 51°14.395 2°51.435 259.7 5.2 253 9
2011-06-01 08:00:45 51°14.393 2°51.424 260.5 5.1 253 8.9
2011-06-01 08:00:50 51°14.391 2°51.413 261.3 5.1 253 8.8
2011-06-01 08:00:55 51°14.389 2°51.403 261.6 5 252 8.9
2011-06-01 08:00:59 51°14.387 2°51.394 261.6 5.1 253 9
2011-06-01 08:01:05 51°14.385 2°51.381 261.5 5.1 254 8.9
2011-06-01 08:01:10 51°14.383 2°51.37 261.3 5.1 252 8.9
2011-06-01 08:01:15 51°14.381 2°51.36 260.9 5 253 8.9
2011-06-01 08:01:19 51°14.379 2°51.351 260.7 5.1 252 9
2011-06-01 08:01:25 51°14.376 2°51.339 260.4 5 252 8.8
2011-06-01 08:01:30 51°14.374 2°51.328 259.8 4.9 251 8.8
2011-06-01 08:01:35 51°14.372 2°51.319 259.3 4.8 251 8.9
2011-06-01 08:01:40 51°14.37 2°51.308 258.9 4.8 250 9
2011-06-01 08:01:45 51°14.368 2°51.298 258.7 4.8 251 9
2011-06-01 08:01:50 51°14.365 2°51.288 258.5 4.8 250 8.9
2011-06-01 08:01:55 51°14.363 2°51.279 258 4.7 251 8.9
2011-06-01 08:02:00 51°14.361 2°51.269 257.7 4.7 250 8.7
2011-06-01 08:02:05 51°14.359 2°51.259 257.7 4.7 250 8.9
2011-06-01 08:02:10 51°14.357 2°51.25 257.2 4.6 249 8.9
2011-06-01 08:02:15 51°14.354 2°51.24 256.9 4.6 248 9
2011-06-01 08:02:20 51°14.352 2°51.231 256.6 4.5 249 8.9
2011-06-01 08:02:25 51°14.349 2°51.222 256.3 4.5 248 9
2011-06-01 08:02:30 51°14.347 2°51.213 255.9 4.4 247 8.9
2011-06-01 08:02:35 51°14.345 2°51.204 255.6 4.4 247 9
2011-06-01 08:02:40 51°14.343 2°51.195 255.1 4.4 247 8.9
2011-06-01 08:02:45 51°14.34 2°51.186 254.8 4.4 246 9
2011-06-01 08:02:50 51°14.338 2°51.177 254.2 4.4 247 8.9
2011-06-01 08:02:55 51°14.335 2°51.168 253.7 4.3 245 8.9
2011-06-01 08:03:00 51°14.333 2°51.16 252.8 4.3 244 8.9
2011-06-01 08:03:05 51°14.33 2°51.151 252.1 4.3 244 8.9
2011-06-01 08:03:10 51°14.328 2°51.142 251.5 4.3 244 9
2011-06-01 08:03:15 51°14.325 2°51.134 250.6 4.3 243 9
2011-06-01 08:03:20 51°14.322 2°51.125 249.9 4.3 243 8.9
2011-06-01 08:03:25 51°14.319 2°51.117 249.3 4.3 242 8.9
2011-06-01 08:03:30 51°14.316 2°51.109 248.7 4.3 242 8.8
2011-06-01 08:03:35 51°14.313 2°51.1 248.2 4.3 241 8.9
2011-06-01 08:03:40 51°14.311 2°51.092 247.5 4.3 241 8.9
2011-06-01 08:03:45 51°14.307 2°51.084 246.9 4.3 239 8.9
2011-06-01 08:03:50 51°14.304 2°51.076 246.1 4.3 239 8.8
2011-06-01 08:03:55 51°14.301 2°51.068 245.4 4.3 239 8.8
2011-06-01 08:04:00 51°14.298 2°51.06 244.7 4.3 239 8.9
2011-06-01 08:04:05 51°14.295 2°51.052 244.2 4.3 238 8.7
2011-06-01 08:04:10 51°14.292 2°51.044 243.5 4.3 237 8.8
2011-06-01 08:04:15 51°14.288 2°51.036 242.7 4.3 237 8.8
2011-06-01 08:04:20 51°14.285 2°51.028 242.1 4.2 236 8.9
2011-06-01 08:04:25 51°14.282 2°51.021 241.5 4.3 236 8.9
2011-06-01 08:04:30 51°14.279 2°51.013 240.8 4.2 235 8.8
2011-06-01 08:04:35 51°14.275 2°51.005 240.1 4.3 235 8.8
2011-06-01 08:04:40 51°14.272 2°50.997 239.6 4.2 235 8.8
2011-06-01 08:04:45 51°14.269 2°50.99 239.4 4.2 236 8.8
2011-06-01 08:04:50 51°14.265 2°50.982 239.2 4.3 234 8.8
2011-06-01 08:04:55 51°14.262 2°50.974 239.4 4.3 235 8.7
2011-06-01 08:04:59 51°14.259 2°50.968 239.6 4.3 236 8.7
2011-06-01 08:05:05 51°14.255 2°50.959 239.9 4.2 236 8.7
2011-06-01 08:05:10 51°14.252 2°50.951 240.2 4.2 235 8.7
2011-06-01 08:05:15 51°14.249 2°50.944 240.6 4.2 236 8.7
2011-06-01 08:05:19 51°14.246 2°50.937 240.9 4.2 235 8.7
2011-06-01 08:05:25 51°14.242 2°50.928 241.1 4.2 235 8.7
2011-06-01 08:05:30 51°14.239 2°50.92 241.5 4.2 237 8.7
2011-06-01 08:05:35 51°14.236 2°50.912 241.8 4.2 237 8.7
2011-06-01 08:05:40 51°14.232 2°50.905 242.3 4.2 237 8.8
2011-06-01 08:05:45 51°14.229 2°50.897 242.8 4.2 236 8.9
2011-06-01 08:05:50 51°14.226 2°50.889 243.9 4.2 238 8.8
2011-06-01 08:05:55 51°14.223 2°50.881 244.7 4.2 237 8.8
2011-06-01 08:05:59 51°14.221 2°50.875 245.8 4.2 241 8.7
2011-06-01 08:06:05 51°14.217 2°50.865 247 4.2 240 8.8
2011-06-01 08:06:10 51°14.215 2°50.857 248.2 4.1 241 8.8
2011-06-01 08:06:15 51°14.212 2°50.849 249.1 4.1 241 8.8
2011-06-01 08:06:19 51°14.21 2°50.843 249.8 4.1 242 8.7
2011-06-01 08:06:25 51°14.207 2°50.833 250.6 4.1 243 8.7
2011-06-01 08:06:30 51°14.204 2°50.825 251.3 4.1 244 8.6
2011-06-01 08:06:35 51°14.202 2°50.817 251.9 4.1 243 8.7
2011-06-01 08:06:40 51°14.199 2°50.808 252.6 4.1 244 8.7
2011-06-01 08:06:45 51°14.197 2°50.8 253.4 4.1 244 8.6
2011-06-01 08:06:50 51°14.195 2°50.792 253.8 4 245 8.7
2011-06-01 08:06:55 51°14.192 2°50.784 254.5 4 244 8.7
2011-06-01 08:07:00 51°14.19 2°50.776 255.1 4.1 245 8.7
2011-06-01 08:07:05 51°14.188 2°50.768 255.6 4.1 245 8.8
2011-06-01 08:07:10 51°14.186 2°50.759 256 4.1 248 8.6
2011-06-01 08:07:15 51°14.184 2°50.751 256.5 4.1 247 8.6
2011-06-01 08:07:20 51°14.182 2°50.742 257 4 249 8.8
2011-06-01 08:07:25 51°14.18 2°50.734 257.5 4 248 8.7
2011-06-01 08:07:30 51°14.178 2°50.726 258.1 4 249 8.7
2011-06-01 08:07:35 51°14.176 2°50.718 258.5 4 248 8.7
2011-06-01 08:07:40 51°14.174 2°50.709 258.6 4 249 8.6
2011-06-01 08:07:45 51°14.172 2°50.701 258.9 4 249 8.7
2011-06-01 08:07:50 51°14.17 2°50.693 259.2 4 250 8.7
2011-06-01 08:07:55 51°14.168 2°50.685 259.4 4 249 8.6
2011-06-01 08:07:59 51°14.166 2°50.678 259.7 4 250 8.6
2011-06-01 08:08:05 51°14.164 2°50.668 259.8 4 250 8.7
2011-06-01 08:08:10 51°14.162 2°50.66 259.9 4 250 8.8
2011-06-01 08:08:15 51°14.16 2°50.651 259.9 4 250 8.8
2011-06-01 08:08:19 51°14.159 2°50.645 259.9 4 250 8.8
2011-06-01 08:08:25 51°14.156 2°50.635 259.8 4 249 8.7
2011-06-01 08:08:30 51°14.154 2°50.627 259.5 4 249 8.7
2011-06-01 08:08:35 51°14.153 2°50.618 259.3 4 249 8.8
2011-06-01 08:08:39 51°14.151 2°50.612 259.1 4 249 8.8
2011-06-01 08:08:45 51°14.148 2°50.602 258.7 4 248 8.8
2011-06-01 08:08:50 51°14.146 2°50.594 258.5 4 249 8.8
2011-06-01 08:08:55 51°14.144 2°50.586 258.3 4 249 8.7
2011-06-01 08:09:00 51°14.142 2°50.578 257.9 4 248 8.8
2011-06-01 08:09:05 51°14.14 2°50.569 257.7 4 248 8.8
2011-06-01 08:09:10 51°14.138 2°50.561 257.6 4 248 8.7
2011-06-01 08:09:15 51°14.136 2°50.553 257.5 4 248 8.7
2011-06-01 08:09:19 51°14.134 2°50.546 257.4 4 248 8.7
2011-06-01 08:09:25 51°14.132 2°50.537 257.4 4 248 8.7
2011-06-01 08:09:30 51°14.13 2°50.529 257.3 4 248 8.7
2011-06-01 08:09:35 51°14.128 2°50.52 257.4 4 248 8.6
2011-06-01 08:09:40 51°14.126 2°50.512 257.3 4 248 8.6
2011-06-01 08:09:45 51°14.124 2°50.504 257.3 4 248 8.7
2011-06-01 08:09:50 51°14.122 2°50.496 257.1 4 248 8.7
2011-06-01 08:09:55 51°14.12 2°50.487 257 4 249 8.8
2011-06-01 08:09:59 51°14.118 2°50.481 257 4 248 8.8
2011-06-01 08:10:05 51°14.115 2°50.471 256.8 4.1 248 8.6
2011-06-01 08:10:10 51°14.113 2°50.463 256.6 4.1 247 8.5
2011-06-01 08:10:15 51°14.111 2°50.454 256.5 4.1 247 8.5
2011-06-01 08:10:19 51°14.109 2°50.447 256.5 4.1 247 8.7
2011-06-01 08:10:25 51°14.107 2°50.438 256.3 4.1 246 8.7
2011-06-01 08:10:30 51°14.105 2°50.429 256.1 4.1 246 8.7
2011-06-01 08:10:35 51°14.102 2°50.421 255.8 4.1 247 8.6
2011-06-01 08:10:39 51°14.101 2°50.414 255.6 4 246 8.7
2011-06-01 08:10:45 51°14.098 2°50.404 255.2 4.1 246 8.7
2011-06-01 08:10:50 51°14.096 2°50.396 254.9 4.1 247 8.6
2011-06-01 08:10:55 51°14.093 2°50.388 254.7 4.1 246 8.6
2011-06-01 08:10:59 51°14.092 2°50.382 254.4 4.1 245 8.6
2011-06-01 08:11:05 51°14.089 2°50.372 254.1 4.1 246 8.8
2011-06-01 08:11:10 51°14.086 2°50.364 254 4 245 8.6
2011-06-01 08:11:15 51°14.084 2°50.356 253.8 4 244 8.7
2011-06-01 08:11:20 51°14.081 2°50.348 253.4 4 244 8.6
2011-06-01 08:11:25 51°14.079 2°50.339 253.1 4.1 246 8.6
2011-06-01 08:11:30 51°14.077 2°50.332 252.9 4.1 245 8.7
2011-06-01 08:11:35 51°14.074 2°50.323 252.6 4.1 245 8.6
2011-06-01 08:11:39 51°14.072 2°50.317 252.4 4.1 244 8.5
2011-06-01 08:11:45 51°14.069 2°50.307 252.3 4 244 8.6
2011-06-01 08:11:50 51°14.067 2°50.299 251.9 4 243 8.5
2011-06-01 08:11:55 51°14.064 2°50.291 251.7 4 243 8.6
2011-06-01 08:11:59 51°14.063 2°50.285 251.7 4 244 8.6
2011-06-01 08:12:05 51°14.059 2°50.275 251.4 4.1 243 8.6
2011-06-01 08:12:10 51°14.057 2°50.267 251.2 4 244 8.6
2011-06-01 08:12:15 51°14.054 2°50.259 251.2 4 242 8.7
2011-06-01 08:12:19 51°14.052 2°50.253 251 4 243 8.5
2011-06-01 08:12:24 51°14.05 2°50.245 250.8 4.1 243 8.6
2011-06-01 08:12:30 51°14.047 2°50.235 250.6 4 242 8.6
2011-06-01 08:12:35 51°14.044 2°50.227 250.3 4.1 242 8.6
2011-06-01 08:12:39 51°14.042 2°50.221 250.1 4 243 8.6
2011-06-01 08:12:44 51°14.039 2°50.213 250 4 241 8.7
2011-06-01 08:12:50 51°14.036 2°50.204 249.9 4 241 8.7
2011-06-01 08:12:55 51°14.033 2°50.196 249.7 4.1 241 8.6
2011-06-01 08:12:59 51°14.031 2°50.19 249.6 4 242 8.5
2011-06-01 08:13:05 51°14.028 2°50.18 249.5 4 241 8.6
2011-06-01 08:13:10 51°14.025 2°50.172 249.5 4.1 241 8.7
2011-06-01 08:13:14 51°14.023 2°50.166 249.4 4 242 8.6
2011-06-01 08:13:19 51°14.021 2°50.158 249.5 4.1 241 8.6
2011-06-01 08:13:24 51°14.018 2°50.15 249.6 4 241 8.6
2011-06-01 08:13:29 51°14.015 2°50.142 249.6 4.1 241 8.7
2011-06-01 08:13:35 51°14.012 2°50.133 249.6 4 241 8.6
2011-06-01 08:13:40 51°14.009 2°50.125 249.5 4.1 242 8.4
2011-06-01 08:13:44 51°14.007 2°50.119 249.3 4.1 241 8.5
2011-06-01 08:13:50 51°14.004 2°50.11 249.2 4 241 8.6
2011-06-01 08:13:55 51°14.001 2°50.102 249 4 241 8.5
2011-06-01 08:14:00 51°13.999 2°50.094 249.1 4 242 8.4
2011-06-01 08:14:05 51°13.996 2°50.086 249.1 4 242 8.6
2011-06-01 08:14:10 51°13.993 2°50.078 249.3 4 241 8.6
2011-06-01 08:14:15 51°13.991 2°50.071 249.5 4 242 8.6
2011-06-01 08:14:20 51°13.988 2°50.063 249.6 4 241 8.6
2011-06-01 08:14:24 51°13.986 2°50.056 249.8 4 242 8.5
2011-06-01 08:14:30 51°13.983 2°50.046 250 4 242 8.6
2011-06-01 08:14:35 51°13.98 2°50.039 250 4 243 8.7
2011-06-01 08:14:40 51°13.978 2°50.031 250 4.1 243 8.5
2011-06-01 08:14:44 51°13.976 2°50.024 250.2 4 243 8.6
2011-06-01 08:14:50 51°13.972 2°50.015 250.4 4 242 8.6
2011-06-01 08:14:55 51°13.97 2°50.007 250.5 4 242 8.5
2011-06-01 08:15:00 51°13.967 2°49.999 250.5 4 243 8.5
2011-06-01 08:15:04 51°13.965 2°49.993 250.5 4 243 8.4
2011-06-01 08:15:10 51°13.962 2°49.984 250.7 4 242 8.4
2011-06-01 08:15:15 51°13.96 2°49.976 251 4.1 243 8.5
2011-06-01 08:15:20 51°13.957 2°49.968 251.1 4.1 242 8.5
2011-06-01 08:15:24 51°13.955 2°49.962 251.1 4 242 8.5
2011-06-01 08:15:30 51°13.952 2°49.952 251.2 4 243 8.5
2011-06-01 08:15:35 51°13.949 2°49.944 251.2 4 243 8.5
2011-06-01 08:15:40 51°13.947 2°49.936 251.2 4 243 8.5
2011-06-01 08:15:45 51°13.944 2°49.928 251.3 4 243 8.5
2011-06-01 08:15:50 51°13.942 2°49.92 251.4 4 244 8.5
2011-06-01 08:15:55 51°13.939 2°49.912 251.8 4.1 243 8.5
2011-06-01 08:16:00 51°13.937 2°49.904 251.7 4.1 244 8.4
2011-06-01 08:16:05 51°13.935 2°49.896 251.9 4.1 244 8.4
2011-06-01 08:16:10 51°13.932 2°49.888 252 4.1 243 8.5
2011-06-01 08:16:15 51°13.93 2°49.88 252.3 4.1 243 8.5
2011-06-01 08:16:20 51°13.927 2°49.872 252.6 4.1 243 8.5
2011-06-01 08:16:25 51°13.925 2°49.864 252.7 4.1 244 8.6
2011-06-01 08:16:30 51°13.922 2°49.856 252.9 4.1 246 8.4
2011-06-01 08:16:35 51°13.92 2°49.848 253.3 4.1 245 8.4
2011-06-01 08:16:40 51°13.917 2°49.84 253.6 4 245 8.5
2011-06-01 08:16:45 51°13.915 2°49.832 253.8 4.1 244 8.4
2011-06-01 08:16:50 51°13.913 2°49.823 254 4 246 8.4
2011-06-01 08:16:55 51°13.911 2°49.815 254.1 4.1 244 8.5
2011-06-01 08:17:00 51°13.908 2°49.807 254.2 4 246 8.5
2011-06-01 08:17:04 51°13.906 2°49.8 254.2 4 244 8.5
2011-06-01 08:17:10 51°13.904 2°49.791 254.2 4 245 8.5
2011-06-01 08:17:15 51°13.901 2°49.782 254.3 4 244 8.5
2011-06-01 08:17:20 51°13.899 2°49.774 254.1 4.1 245 8.5
2011-06-01 08:17:24 51°13.897 2°49.767 254.1 4.1 245 8.5
2011-06-01 08:17:30 51°13.895 2°49.757 254.1 4.1 246 8.4
2011-06-01 08:17:35 51°13.892 2°49.749 254 4.1 245 8.4
2011-06-01 08:17:40 51°13.89 2°49.741 253.9 4.1 245 8.3
2011-06-01 08:17:44 51°13.888 2°49.734 253.8 4.1 245 8.4
2011-06-01 08:17:49 51°13.885 2°49.726 253.7 4.1 244 8.4
2011-06-01 08:17:55 51°13.883 2°49.716 253.5 4.1 245 8.4
2011-06-01 08:18:00 51°13.88 2°49.708 253.4 4.1 244 8.5
2011-06-01 08:18:04 51°13.878 2°49.701 253.4 4.1 244 8.5
2011-06-01 08:18:09 51°13.876 2°49.693 253.4 4.1 244 8.5
2011-06-01 08:18:15 51°13.873 2°49.683 253.2 4.1 244 8.6
2011-06-01 08:18:20 51°13.87 2°49.675 253.1 4.1 244 8.6
2011-06-01 08:18:24 51°13.869 2°49.668 253 4.1 244 8.6
2011-06-01 08:18:29 51°13.866 2°49.66 253 4.1 245 8.4
2011-06-01 08:18:34 51°13.864 2°49.652 252.8 4.1 244 8.4
2011-06-01 08:18:39 51°13.861 2°49.644 252.7 4.1 244 8.4
2011-06-01 08:18:44 51°13.859 2°49.636 252.4 4.1 243 8.4
2011-06-01 08:18:49 51°13.856 2°49.628 252.2 4.1 244 8.5
2011-06-01 08:18:55 51°13.853 2°49.618 252.1 4.1 244 8.5
2011-06-01 08:19:00 51°13.851 2°49.61 251.8 4.1 245 8.4
2011-06-01 08:19:04 51°13.849 2°49.603 251.7 4.1 243 8.5
2011-06-01 08:19:10 51°13.846 2°49.594 251.6 4.1 244 8.6
2011-06-01 08:19:15 51°13.843 2°49.586 251.4 4.1 243 8.5
2011-06-01 08:19:20 51°13.841 2°49.578 251.1 4.1 243 8.5
2011-06-01 08:19:24 51°13.838 2°49.572 251.1 4.1 243 8.5
2011-06-01 08:19:29 51°13.836 2°49.564 251 4.1 243 8.4
2011-06-01 08:19:35 51°13.833 2°49.554 250.9 4.1 242 8.5
2011-06-01 08:19:40 51°13.83 2°49.546 250.6 4.1 242 8.6
2011-06-01 08:19:44 51°13.828 2°49.54 250.5 4.1 242 8.5
2011-06-01 08:19:50 51°13.825 2°49.53 250.3 4.1 242 8.6
2011-06-01 08:19:55 51°13.822 2°49.522 249.9 4.1 243 8.6
2011-06-01 08:20:00 51°13.819 2°49.515 249.8 4.1 242 8.6
2011-06-01 08:20:04 51°13.817 2°49.508 249.7 4.1 241 8.5
2011-06-01 08:20:09 51°13.815 2°49.5 249.4 4.1 241 8.5
2011-06-01 08:20:15 51°13.811 2°49.491 249.2 4.1 242 8.5
2011-06-01 08:20:20 51°13.809 2°49.482 249 4.1 243 8.5
2011-06-01 08:20:24 51°13.807 2°49.476 248.9 4.1 242 8.5
2011-06-01 08:20:30 51°13.803 2°49.466 248.9 4.1 242 8.6
2011-06-01 08:20:34 51°13.801 2°49.46 248.7 4.1 242 8.6
2011-06-01 08:20:40 51°13.798 2°49.45 248.7 4.2 242 8.6
2011-06-01 08:20:44 51°13.796 2°49.444 248.7 4.1 242 8.5
2011-06-01 08:20:49 51°13.793 2°49.436 249 4.1 241 8.6
2011-06-01 08:20:54 51°13.79 2°49.428 249.1 4.1 241 8.7
2011-06-01 08:21:00 51°13.787 2°49.419 249.1 4.1 242 8.6
2011-06-01 08:21:04 51°13.785 2°49.412 249.1 4.1 242 8.8
2011-06-01 08:21:09 51°13.782 2°49.404 249.1 4.1 241 8.9
2011-06-01 08:21:14 51°13.779 2°49.397 249 4.1 241 8.7
2011-06-01 08:21:20 51°13.776 2°49.387 248.9 4.1 241 8.9
2011-06-01 08:21:24 51°13.773 2°49.38 249 4.1 242 8.7
2011-06-01 08:21:29 51°13.771 2°49.373 249 4.1 242 8.8
2011-06-01 08:21:34 51°13.768 2°49.365 249.2 4.1 242 8.7
2011-06-01 08:21:40 51°13.765 2°49.356 249.3 4.1 242 8.7
2011-06-01 08:21:44 51°13.762 2°49.349 249.7 4.1 242 8.9
2011-06-01 08:21:49 51°13.76 2°49.341 249.7 4.1 242 8.9
2011-06-01 08:21:55 51°13.757 2°49.332 249.8 4.1 242 8.9
2011-06-01 08:22:00 51°13.754 2°49.323 250.1 4.1 243 8.8
2011-06-01 08:22:04 51°13.752 2°49.317 250.3 4.1 242 8.9
2011-06-01 08:22:08 51°13.75 2°49.311 250.5 4 242 8.8
2011-06-01 08:22:15 51°13.746 2°49.299 250.6 4.1 242 8.8
2011-06-01 08:22:20 51°13.744 2°49.291 250.9 4.1 244 8.7
2011-06-01 08:22:24 51°13.742 2°49.285 251.2 4.1 244 8.7
2011-06-01 08:22:29 51°13.739 2°49.277 251.5 4.1 244 8.9
2011-06-01 08:22:35 51°13.736 2°49.267 251.8 4.1 244 8.8
2011-06-01 08:22:40 51°13.733 2°49.259 252.1 4.1 244 8.8
2011-06-01 08:22:44 51°13.731 2°49.253 252.4 4.1 244 9
2011-06-01 08:22:50 51°13.729 2°49.243 252.7 4.1 245 8.9
2011-06-01 08:22:54 51°13.727 2°49.236 252.7 4.1 247 8.8
2011-06-01 08:23:00 51°13.724 2°49.226 253.1 4.1 246 8.8
2011-06-01 08:23:04 51°13.722 2°49.22 253.6 4 246 9
2011-06-01 08:23:09 51°13.72 2°49.212 254.8 4 247 9
2011-06-01 08:23:14 51°13.718 2°49.203 256.4 4 248 9
2011-06-01 08:23:19 51°13.716 2°49.195 257.8 4 248 9.1
2011-06-01 08:23:24 51°13.714 2°49.187 259.2 4 249 9
2011-06-01 08:23:29 51°13.712 2°49.179 260.7 3.9 249 9
2011-06-01 08:23:34 51°13.71 2°49.171 261.9 3.9 252 8.9
2011-06-01 08:23:40 51°13.708 2°49.161 263 3.9 252 8.9
2011-06-01 08:23:44 51°13.707 2°49.154 264.2 3.9 254 9.1
2011-06-01 08:23:49 51°13.706 2°49.146 265 3.9 254 9.2
2011-06-01 08:23:54 51°13.704 2°49.137 265.8 3.9 255 9
2011-06-01 08:23:59 51°13.703 2°49.129 266.5 3.9 256 8.8
2011-06-01 08:24:04 51°13.702 2°49.121 267.2 3.9 256 9
2011-06-01 08:24:08 51°13.701 2°49.114 267.9 3.8 256 9
2011-06-01 08:24:14 51°13.699 2°49.104 268.6 3.8 256 9.2
2011-06-01 08:24:20 51°13.698 2°49.094 269.4 3.9 258 9.3
2011-06-01 08:24:24 51°13.697 2°49.088 270.1 3.8 258 9.4
2011-06-01 08:24:29 51°13.696 2°49.079 270.8 3.8 259 9.2
2011-06-01 08:24:34 51°13.695 2°49.071 271.6 3.8 261 9.2
2011-06-01 08:24:39 51°13.694 2°49.063 272.3 3.8 261 9.1
2011-06-01 08:24:44 51°13.694 2°49.054 272.9 3.8 261 9.3
2011-06-01 08:24:49 51°13.693 2°49.046 273.5 3.8 261 9.5
2011-06-01 08:24:55 51°13.692 2°49.036 274.1 3.9 262 9.4
2011-06-01 08:25:00 51°13.691 2°49.028 274.3 3.9 262 9.1
2011-06-01 08:25:04 51°13.69 2°49.021 274.5 3.9 263 8.9
2011-06-01 08:25:09 51°13.689 2°49.013 274.6 3.8 262 8.8
2011-06-01 08:25:14 51°13.689 2°49.005 274.8 3.8 262 8.7
2011-06-01 08:25:20 51°13.688 2°48.995 274.9 3.8 260 8.5
2011-06-01 08:25:24 51°13.687 2°48.988 275 3.8 262 8.3
2011-06-01 08:25:29 51°13.686 2°48.98 274.8 3.8 262 8.4
2011-06-01 08:25:34 51°13.686 2°48.972 274.6 3.8 261 8.3
2011-06-01 08:25:39 51°13.685 2°48.963 274.6 3.9 262 8.3
2011-06-01 08:25:45 51°13.684 2°48.953 274.3 3.9 262 8.1
2011-06-01 08:25:49 51°13.683 2°48.946 274.1 3.8 262 8.2
2011-06-01 08:25:54 51°13.682 2°48.938 273.7 3.8 261 8.2
2011-06-01 08:26:00 51°13.681 2°48.928 273.7 3.8 260 8
2011-06-01 08:26:04 51°13.68 2°48.921 273.6 3.8 259 7.7
2011-06-01 08:26:09 51°13.68 2°48.913 273.2 3.8 260 5.8
2011-06-01 08:26:14 51°13.679 2°48.905 273 3.9 260 8.1
2011-06-01 08:26:19 51°13.678 2°48.896 273 3.9 260 8
2011-06-01 08:26:25 51°13.677 2°48.886 272.8 3.9 261 8.3
2011-06-01 08:26:29 51°13.676 2°48.88 272.8 3.8 260 8.5
2011-06-01 08:26:35 51°13.675 2°48.87 272.8 3.8 259 8.6
2011-06-01 08:26:39 51°13.674 2°48.863 272.8 3.9 260 8.5
2011-06-01 08:26:44 51°13.673 2°48.855 272.8 3.9 260 8.8
2011-06-01 08:26:49 51°13.672 2°48.846 272.9 3.9 261 8.9
2011-06-01 08:26:54 51°13.671 2°48.838 272.9 3.9 260 9
2011-06-01 08:27:00 51°13.67 2°48.828 273 3.9 261 9.1
2011-06-01 08:27:04 51°13.669 2°48.821 273 3.9 261 9
2011-06-01 08:27:10 51°13.668 2°48.811 273 3.9 261 9.1
2011-06-01 08:27:14 51°13.667 2°48.804 273 3.8 259 9.2
2011-06-01 08:27:19 51°13.667 2°48.796 272.8 3.8 260 9.1
2011-06-01 08:27:25 51°13.665 2°48.786 272.6 3.9 260 9.2
2011-06-01 08:27:29 51°13.665 2°48.779 272.4 3.8 260 9.1
2011-06-01 08:27:34 51°13.664 2°48.771 272.3 3.9 260 9.2
2011-06-01 08:27:39 51°13.663 2°48.762 272.1 3.9 260 9.3
2011-06-01 08:27:44 51°13.662 2°48.754 271.7 3.9 260 9.3
2011-06-01 08:27:49 51°13.661 2°48.746 271.5 3.9 259 9.3
2011-06-01 08:27:54 51°13.66 2°48.737 271.5 3.9 260 9.3
2011-06-01 08:28:00 51°13.659 2°48.727 271.5 3.9 261 9.1
2011-06-01 08:28:04 51°13.658 2°48.72 271.5 3.9 260 9
2011-06-01 08:28:08 51°13.658 2°48.714 271.4 3.8 260 9.2
2011-06-01 08:28:14 51°13.656 2°48.704 271.2 3.8 259 9.3
2011-06-01 08:28:20 51°13.655 2°48.693 271 3.9 259 9.4
2011-06-01 08:28:24 51°13.654 2°48.687 270.8 3.9 259 9.4
2011-06-01 08:28:30 51°13.653 2°48.677 270.8 3.9 258 9.4
2011-06-01 08:28:34 51°13.652 2°48.67 270.6 3.9 260 9.5
2011-06-01 08:28:41 51°13.651 2°48.658 270.3 3.9 258 9.6
2011-06-01 08:28:44 51°13.65 2°48.653 270.4 3.9 258 9.6
2011-06-01 08:28:48 51°13.649 2°48.646 270.4 3.9 259 9.5
2011-06-01 08:28:54 51°13.648 2°48.636 270.3 3.9 259 9.6
2011-06-01 08:28:59 51°13.647 2°48.627 270.2 3.9 259 9.5
2011-06-01 08:29:05 51°13.646 2°48.617 270.1 3.9 259 9.5
2011-06-01 08:29:10 51°13.644 2°48.609 269.8 3.9 258 9.7
2011-06-01 08:29:15 51°13.643 2°48.6 269.6 3.9 258 9.8
2011-06-01 08:29:20 51°13.642 2°48.592 269.1 3.9 257 9.7
2011-06-01 08:29:25 51°13.641 2°48.584 268.2 3.9 256 9.7
2011-06-01 08:29:29 51°13.64 2°48.577 267.2 3.9 256 9.7
2011-06-01 08:29:35 51°13.638 2°48.567 266 4 255 9.7
2011-06-01 08:29:40 51°13.636 2°48.559 264.9 3.9 253 9.7
2011-06-01 08:29:45 51°13.635 2°48.55 263.6 4 253 9.6
2011-06-01 08:29:50 51°13.633 2°48.542 262.6 4 252 9.8
2011-06-01 08:29:55 51°13.631 2°48.533 262 4 252 9.8
2011-06-01 08:30:00 51°13.629 2°48.525 261.1 4 251 9.9
2011-06-01 08:30:05 51°13.627 2°48.517 260.3 4 249 9.9
2011-06-01 08:30:10 51°13.625 2°48.508 259.7 4 249 10.1
2011-06-01 08:30:15 51°13.623 2°48.5 259.1 4 249 9.7
2011-06-01 08:30:20 51°13.621 2°48.492 258.3 4 248 9.7
2011-06-01 08:30:25 51°13.619 2°48.484 257.7 4 247 9.6
2011-06-01 08:30:30 51°13.617 2°48.475 256.9 4 247 9.5
2011-06-01 08:30:35 51°13.615 2°48.467 256.3 4 247 9.4
2011-06-01 08:30:40 51°13.613 2°48.459 255.9 4 246 9.7
2011-06-01 08:30:45 51°13.61 2°48.451 255.6 4 245 9.7
2011-06-01 08:30:50 51°13.608 2°48.442 255.1 4.1 246 9.4
2011-06-01 08:30:55 51°13.606 2°48.434 255 4.1 246 9.8
2011-06-01 08:31:00 51°13.603 2°48.426 254.8 4.1 245 9.4
2011-06-01 08:31:05 51°13.601 2°48.417 254.7 4.1 246 9.8
2011-06-01 08:31:09 51°13.599 2°48.411 254.7 4.1 246 9.8
2011-06-01 08:31:15 51°13.596 2°48.401 254.7 4.1 245 9.6
2011-06-01 08:31:20 51°13.594 2°48.393 254.7 4.1 247 9.1
2011-06-01 08:31:25 51°13.592 2°48.384 254.8 4.1 246 8.9
2011-06-01 08:31:29 51°13.59 2°48.378 254.8 4.1 247 9.3
2011-06-01 08:31:35 51°13.587 2°48.368 254.8 4.1 246 9.2
2011-06-01 08:31:40 51°13.585 2°48.36 254.9 4.1 247 9.4
2011-06-01 08:31:45 51°13.583 2°48.351 255.1 4.1 246 9.5
2011-06-01 08:31:49 51°13.581 2°48.345 255.5 4.1 246 9.6
2011-06-01 08:31:54 51°13.579 2°48.337 255.8 4.1 245 9.6
2011-06-01 08:32:00 51°13.576 2°48.327 256.2 4.1 246 9.8
2011-06-01 08:32:05 51°13.574 2°48.318 256.6 4.1 248 10.1
2011-06-01 08:32:09 51°13.572 2°48.312 257.1 4.1 247 10.1
2011-06-01 08:32:15 51°13.57 2°48.302 257.6 4 248 10
2011-06-01 08:32:20 51°13.568 2°48.293 258.5 4.1 249 10.1
2011-06-01 08:32:25 51°13.566 2°48.285 259.9 4 250 10.1
2011-06-01 08:32:29 51°13.564 2°48.278 261.5 4 250 10
2011-06-01 08:32:35 51°13.563 2°48.268 263.1 4 253 10.1
2011-06-01 08:32:40 51°13.561 2°48.259 264.4 4 254 9.7
2011-06-01 08:32:45 51°13.56 2°48.251 266.4 4 256 9.5
2011-06-01 08:32:49 51°13.559 2°48.244 267.9 3.9 256 9.6
2011-06-01 08:32:55 51°13.557 2°48.235 269.4 3.8 257 9.6
2011-06-01 08:33:00 51°13.557 2°48.226 271 3.8 260 9.8
2011-06-01 08:33:05 51°13.556 2°48.218 272.6 3.8 261 9.9
2011-06-01 08:33:10 51°13.555 2°48.209 274.2 3.8 262 9.9
2011-06-01 08:33:15 51°13.554 2°48.201 275.7 3.7 263 9.6
2011-06-01 08:33:20 51°13.554 2°48.193 277.1 3.7 263 9.4
2011-06-01 08:33:25 51°13.554 2°48.185 278 3.8 265 9.2
2011-06-01 08:33:29 51°13.553 2°48.178 278.9 3.8 265 9.4
2011-06-01 08:33:35 51°13.553 2°48.168 279.5 3.7 265 9.5
2011-06-01 08:33:40 51°13.552 2°48.16 280.1 3.7 266 9.7
2011-06-01 08:33:45 51°13.552 2°48.152 280.2 3.7 267 9.7
2011-06-01 08:33:49 51°13.552 2°48.145 280.2 3.7 266 10
2011-06-01 08:33:55 51°13.551 2°48.135 280.4 3.7 266 10.1
2011-06-01 08:34:00 51°13.551 2°48.127 280.4 3.7 267 10.3
2011-06-01 08:34:05 51°13.551 2°48.119 280.5 3.7 268 10.3
2011-06-01 08:34:09 51°13.551 2°48.113 280.6 3.7 267 10.4
2011-06-01 08:34:14 51°13.55 2°48.105 280.6 3.7 267 10.4
2011-06-01 08:34:20 51°13.55 2°48.095 280.9 3.7 267 10.5
2011-06-01 08:34:25 51°13.55 2°48.087 281 3.7 268 10.4
2011-06-01 08:34:29 51°13.55 2°48.08 281.4 3.6 267 10.6
2011-06-01 08:34:34 51°13.55 2°48.072 282 3.6 267 10.5
2011-06-01 08:34:39 51°13.55 2°48.064 282.6 3.7 269 10.6
2011-06-01 08:34:45 51°13.55 2°48.054 283.2 3.7 270 10.6
2011-06-01 08:34:49 51°13.549 2°48.048 283.9 3.6 269 10.6
2011-06-01 08:34:54 51°13.549 2°48.04 284.6 3.6 270 10.6
2011-06-01 08:35:00 51°13.55 2°48.03 285.3 3.7 271 10.7
2011-06-01 08:35:05 51°13.55 2°48.022 285.8 3.6 271 10.7
2011-06-01 08:35:09 51°13.55 2°48.015 286.8 3.6 271 10.7
2011-06-01 08:35:14 51°13.55 2°48.007 287.7 3.6 271 10.7
2011-06-01 08:35:20 51°13.55 2°47.998 288.4 3.5 273 10.6
2011-06-01 08:35:25 51°13.551 2°47.99 289.2 3.6 273 10.8
2011-06-01 08:35:29 51°13.551 2°47.983 290.5 3.6 276 10.7
2011-06-01 08:35:34 51°13.552 2°47.975 291.6 3.7 277 10.8
2011-06-01 08:35:40 51°13.553 2°47.966 292.4 3.6 277 10.8
2011-06-01 08:35:45 51°13.554 2°47.958 293.4 3.6 278 10.6
2011-06-01 08:35:49 51°13.554 2°47.952 294.7 3.6 279 10.7
2011-06-01 08:35:55 51°13.555 2°47.942 295.7 3.6 279 10.7
2011-06-01 08:36:00 51°13.556 2°47.934 296.6 3.7 281 10.8
2011-06-01 08:36:05 51°13.557 2°47.926 297.7 3.7 283 10.7
2011-06-01 08:36:09 51°13.558 2°47.92 298.4 3.5 282 10.7
2011-06-01 08:36:14 51°13.559 2°47.913 299.1 3.4 282 10.8
2011-06-01 08:36:20 51°13.56 2°47.904 300 3.3 282 10.9
2011-06-01 08:36:25 51°13.561 2°47.897 300.7 3.2 280 11.1
2011-06-01 08:36:29 51°13.562 2°47.892 301.6 3.1 282 11
2011-06-01 08:36:34 51°13.563 2°47.885 302.1 3.1 282 10.9
2011-06-01 08:36:40 51°13.564 2°47.877 302.8 3 283 10.9
2011-06-01 08:36:45 51°13.565 2°47.871 303.6 2.9 283 10.8
2011-06-01 08:36:49 51°13.566 2°47.867 304.5 2.8 281 11
2011-06-01 08:36:54 51°13.566 2°47.861 305 2.7 282 11
2011-06-01 08:36:59 51°13.567 2°47.855 305.6 2.5 282 10.8
2011-06-01 08:37:05 51°13.568 2°47.849 306.2 2.5 281 11
2011-06-01 08:37:09 51°13.569 2°47.844 306.8 2.5 283 11.1
2011-06-01 08:37:14 51°13.57 2°47.839 307.5 2.5 281 11
2011-06-01 08:37:20 51°13.57 2°47.833 307.6 2.3 281 11.1
2011-06-01 08:37:25 51°13.571 2°47.828 308.2 2.3 281 10.9
2011-06-01 08:37:29 51°13.572 2°47.823 308.6 2.3 282 11.1
2011-06-01 08:37:34 51°13.572 2°47.819 309 2.2 281 11
2011-06-01 08:37:40 51°13.573 2°47.813 309.3 2.2 283 11
2011-06-01 08:37:45 51°13.574 2°47.809 309.6 2.2 282 10.9
2011-06-01 08:37:49 51°13.574 2°47.805 310 2 281 10.9
2011-06-01 08:37:55 51°13.574 2°47.8 310.2 1.9 279 11
2011-06-01 08:38:00 51°13.575 2°47.796 310.5 2 281 11.2
2011-06-01 08:38:05 51°13.575 2°47.792 310.7 2 281 11
2011-06-01 08:38:09 51°13.576 2°47.788 310.9 1.9 280 11
2011-06-01 08:38:15 51°13.576 2°47.783 311.2 1.9 281 11.1
2011-06-01 08:38:20 51°13.577 2°47.78 311.5 1.8 278 11.1
2011-06-01 08:38:25 51°13.577 2°47.776 311.8 1.8 278 11.2
2011-06-01 08:38:29 51°13.577 2°47.773 312.2 1.8 280 11.2
2011-06-01 08:38:34 51°13.578 2°47.769 312.4 1.9 283 11.2
2011-06-01 08:38:40 51°13.579 2°47.763 312.8 2.1 285 11.1
2011-06-01 08:38:45 51°13.58 2°47.759 313 2.2 287 11.2
2011-06-01 08:38:49 51°13.581 2°47.755 313.6 2.5 290 11.1
2011-06-01 08:38:54 51°13.583 2°47.748 314.1 3.2 296 11.1
2011-06-01 08:39:00 51°13.586 2°47.74 314.5 3.5 298 11.1
2011-06-01 08:39:05 51°13.589 2°47.733 315.1 3.8 301 11.1
2011-06-01 08:39:09 51°13.591 2°47.727 315.7 4.1 302 11.2
2011-06-01 08:39:14 51°13.595 2°47.719 317 4.2 305 11.2
2011-06-01 08:39:19 51°13.598 2°47.711 318.6 4.4 307 11.2
2011-06-01 08:39:25 51°13.603 2°47.701 320.5 4.5 309 11.1
2011-06-01 08:39:29 51°13.607 2°47.695 322.5 4.7 312 11.3
2011-06-01 08:39:34 51°13.611 2°47.687 324.9 4.8 314 11.4
2011-06-01 08:39:39 51°13.616 2°47.68 327.4 4.9 318 11.4
2011-06-01 08:39:45 51°13.623 2°47.671 330 4.9 320 11.3
2011-06-01 08:39:50 51°13.628 2°47.665 332.5 4.9 323 11.2
2011-06-01 08:39:54 51°13.633 2°47.659 335 5 325 11.4
2011-06-01 08:40:00 51°13.64 2°47.652 337.4 5.1 327 11.2
2011-06-01 08:40:05 51°13.646 2°47.646 339.3 5.1 329 11.3
2011-06-01 08:40:10 51°13.653 2°47.641 341 5.1 330 11.2
2011-06-01 08:40:14 51°13.658 2°47.636 341.8 5.1 331 11.3
2011-06-01 08:40:20 51°13.665 2°47.63 342.7 5.2 332 11.3
2011-06-01 08:40:25 51°13.672 2°47.624 343.5 5.2 332 11.2
2011-06-01 08:40:29 51°13.677 2°47.62 344.1 5.3 333 11.3
2011-06-01 08:40:34 51°13.684 2°47.615 344.3 5.3 333 11.4
2011-06-01 08:40:40 51°13.692 2°47.609 344.4 5.4 334 11.3
2011-06-01 08:40:45 51°13.698 2°47.603 344.7 5.4 334 11.2
2011-06-01 08:40:49 51°13.704 2°47.599 344.9 5.4 335 11.5
2011-06-01 08:40:53 51°13.709 2°47.595 345.6 5.4 335 11.5
2011-06-01 08:41:00 51°13.719 2°47.588 345.9 5.4 336 11.3
2011-06-01 08:41:05 51°13.725 2°47.584 346.4 5.4 336 11.4
2011-06-01 08:41:09 51°13.731 2°47.58 347 5.4 337 11.5
2011-06-01 08:41:14 51°13.738 2°47.575 347.6 5.4 337 11.5
2011-06-01 08:41:19 51°13.745 2°47.571 347.7 5.3 336 11.5
2011-06-01 08:41:25 51°13.753 2°47.565 346.7 5.4 335 11.5
2011-06-01 08:41:29 51°13.758 2°47.56 345.2 5.4 333 11.5
2011-06-01 08:41:34 51°13.765 2°47.555 343.6 5.4 332 11.5
2011-06-01 08:41:40 51°13.773 2°47.547 341.8 5.5 330 11.5
2011-06-01 08:41:45 51°13.779 2°47.541 339.9 5.3 328 11.6
2011-06-01 08:41:49 51°13.783 2°47.536 338.4 5.1 326 11.6
2011-06-01 08:41:54 51°13.789 2°47.53 337.6 5 326 11.5
2011-06-01 08:41:59 51°13.794 2°47.524 337.1 4.8 325 11.4
2011-06-01 08:42:05 51°13.8 2°47.517 337.1 4.7 325 11.5
2011-06-01 08:42:09 51°13.804 2°47.513 337.2 4.5 325 11.7
2011-06-01 08:42:14 51°13.809 2°47.507 337.3 4.4 325 11.6
2011-06-01 08:42:19 51°13.814 2°47.502 337.5 4.3 325 11.5
2011-06-01 08:42:25 51°13.82 2°47.495 337.6 4.2 325 11.6
2011-06-01 08:42:29 51°13.824 2°47.491 337.8 4.2 325 11.7
2011-06-01 08:42:34 51°13.828 2°47.486 338.2 4.1 325 11.6
2011-06-01 08:42:40 51°13.834 2°47.48 338.6 4 326 11.7
2011-06-01 08:42:45 51°13.838 2°47.475 339.1 4 326 11.7
2011-06-01 08:42:49 51°13.842 2°47.471 339.8 3.9 326 11.6
2011-06-01 08:42:54 51°13.846 2°47.466 340.3 3.8 328 11.7
2011-06-01 08:43:00 51°13.852 2°47.461 340.9 3.8 328 11.8
2011-06-01 08:43:05 51°13.856 2°47.457 341.9 3.7 330 11.6
2011-06-01 08:43:09 51°13.86 2°47.454 343.9 3.7 332 11.8
2011-06-01 08:43:14 51°13.864 2°47.451 346.5 3.6 335 11.6
2011-06-01 08:43:20 51°13.869 2°47.447 349.4 3.6 338 11.7
2011-06-01 08:43:25 51°13.874 2°47.445 352.7 3.6 343 11.8
2011-06-01 08:43:29 51°13.878 2°47.443 356.3 3.6 347 11.7
2011-06-01 08:43:34 51°13.883 2°47.442 359.8 3.5 352 11.6
2011-06-01 08:43:39 51°13.887 2°47.442 3.5 3.5 356 11.6
2011-06-01 08:43:44 51°13.892 2°47.441 7.2 3.5 359 11.7
2011-06-01 08:43:50 51°13.899 2°47.442 11 3.5 2 11.7
2011-06-01 08:43:55 51°13.903 2°47.443 14.6 3.5 7 11.4
2011-06-01 08:44:00 51°13.908 2°47.445 18.3 3.5 11 11.6
2011-06-01 08:44:05 51°13.912 2°47.447 21.9 3.4 18 11.6
2011-06-01 08:44:10 51°13.917 2°47.45 25.8 3.4 22 11.4
2011-06-01 08:44:15 51°13.921 2°47.454 29.5 3.5 25 11.6
2011-06-01 08:44:20 51°13.925 2°47.458 33.3 3.5 31 11.7
2011-06-01 08:44:25 51°13.929 2°47.462 36.9 3.5 36 11.5
2011-06-01 08:44:30 51°13.932 2°47.467 40.4 3.5 38 11.5
2011-06-01 08:44:35 51°13.936 2°47.473 44.1 3.5 43 11.6
2011-06-01 08:44:40 51°13.939 2°47.478 46.4 3.6 45 11.8
2011-06-01 08:44:45 51°13.942 2°47.484 47.8 3.6 48 11.8
2011-06-01 08:44:50 51°13.946 2°47.491 49.2 3.6 49 11.8
2011-06-01 08:44:55 51°13.949 2°47.497 50.2 3.7 50 11.7
2011-06-01 08:45:00 51°13.952 2°47.503 51.2 3.7 52 11.6
2011-06-01 08:45:05 51°13.955 2°47.51 51.9 3.8 54 11.7
2011-06-01 08:45:10 51°13.958 2°47.517 52.7 3.8 54 11.7
2011-06-01 08:45:14 51°13.961 2°47.522 53.4 3.8 55 11.7
2011-06-01 08:45:20 51°13.964 2°47.531 54.1 3.8 55 11.6
2011-06-01 08:45:25 51°13.967 2°47.538 55.2 3.9 56 11.4
2011-06-01 08:45:30 51°13.97 2°47.546 56 3.9 59 11.4
2011-06-01 08:45:34 51°13.972 2°47.552 56.7 3.9 60 11.5
2011-06-01 08:45:40 51°13.975 2°47.561 57.6 3.9 61 11.6
2011-06-01 08:45:45 51°13.978 2°47.568 58.3 4 62 11.6
2011-06-01 08:45:50 51°13.98 2°47.576 59.3 3.9 63 11.5
2011-06-01 08:45:55 51°13.983 2°47.583 60.3 3.9 62 11.6
2011-06-01 08:46:00 51°13.985 2°47.591 61.1 3.9 63 11.7
2011-06-01 08:46:05 51°13.987 2°47.6 62 4 66 11.7
2011-06-01 08:46:10 51°13.989 2°47.608 62.7 4 67 11.7
2011-06-01 08:46:15 51°13.991 2°47.616 63.8 4 68 11.7
2011-06-01 08:46:20 51°13.993 2°47.624 64.3 4 69 11.7
2011-06-01 08:46:25 51°13.995 2°47.632 65.2 4 69 11.7
2011-06-01 08:46:30 51°13.998 2°47.64 65.9 4 69 11.6
2011-06-01 08:46:35 51°13.999 2°47.649 66.9 4 71 11.7
2011-06-01 08:46:40 51°14.001 2°47.658 67.6 4.1 73 11.6
2011-06-01 08:46:45 51°14.002 2°47.667 68.9 4.1 74 11.6
2011-06-01 08:46:50 51°14.004 2°47.675 69.7 4.1 74 11.5
2011-06-01 08:46:54 51°14.005 2°47.682 70.5 4.1 77 11.6
2011-06-01 08:47:00 51°14.007 2°47.693 71.2 4.1 77 11.7
2011-06-01 08:47:05 51°14.008 2°47.701 72.1 4.1 78 11.7
2011-06-01 08:47:10 51°14.01 2°47.71 73.1 4.1 79 11.5
2011-06-01 08:47:15 51°14.011 2°47.719 74.1 4.2 82 11.5
2011-06-01 08:47:20 51°14.012 2°47.728 74.8 4.2 81 11.6
2011-06-01 08:47:25 51°14.013 2°47.736 76.1 4.1 81 11.6
2011-06-01 08:47:30 51°14.014 2°47.745 77 4.1 83 11.6
2011-06-01 08:47:35 51°14.015 2°47.754 78 4.1 83 11.6
2011-06-01 08:47:40 51°14.015 2°47.764 79.1 4.2 86 11.7
2011-06-01 08:47:45 51°14.015 2°47.773 79.9 4.2 88 11.8
2011-06-01 08:47:50 51°14.015 2°47.783 81.1 4.2 89 11.9
2011-06-01 08:47:55 51°14.015 2°47.792 82.1 4.2 89 11.8
2011-06-01 08:48:00 51°14.015 2°47.801 82.9 4.2 89 11.6
2011-06-01 08:48:05 51°14.015 2°47.81 84.3 4.2 91 11.5
2011-06-01 08:48:10 51°14.015 2°47.819 85.4 4.2 92 11.7
2011-06-01 08:48:14 51°14.014 2°47.827 86.1 4.2 93 11.7
2011-06-01 08:48:20 51°14.013 2°47.839 87.2 4.3 96 11.8
2011-06-01 08:48:25 51°14.012 2°47.848 88.5 4.3 97 11.7
2011-06-01 08:48:30 51°14.011 2°47.858 90.1 4.3 100 11.8
2011-06-01 08:48:35 51°14.01 2°47.867 91.4 4.3 99 11.7
2011-06-01 08:48:40 51°14.008 2°47.876 92.7 4.3 102 11.7
2011-06-01 08:48:45 51°14.007 2°47.886 93.7 4.3 104 11.7
2011-06-01 08:48:50 51°14.005 2°47.895 94.8 4.4 104 11.7
2011-06-01 08:48:55 51°14.004 2°47.905 95.7 4.4 105 11.7
2011-06-01 08:49:00 51°14.002 2°47.914 96.4 4.4 106 11.8
2011-06-01 08:49:05 51°14 2°47.924 97 4.5 108 11.6
2011-06-01 08:49:10 51°13.998 2°47.933 97.8 4.4 108 11.6
2011-06-01 08:49:14 51°13.996 2°47.94 98.7 4.4 110 11.8
2011-06-01 08:49:20 51°13.993 2°47.951 99.5 4.5 110 11.8
2011-06-01 08:49:25 51°13.991 2°47.961 100.2 4.5 111 11.7
2011-06-01 08:49:30 51°13.989 2°47.97 101 4.5 111 11.6
2011-06-01 08:49:34 51°13.987 2°47.977 101.7 4.4 112 11.6
2011-06-01 08:49:40 51°13.984 2°47.988 102.3 4.5 113 11.5
2011-06-01 08:49:45 51°13.981 2°47.997 102.6 4.5 114 11.6
2011-06-01 08:49:50 51°13.979 2°48.006 103.2 4.5 115 11.6
2011-06-01 08:49:54 51°13.977 2°48.014 103.5 4.5 115 11.6
2011-06-01 08:50:00 51°13.973 2°48.025 103.7 4.4 113 11.6
2011-06-01 08:50:05 51°13.971 2°48.034 103.8 4.5 115 11.7
2011-06-01 08:50:10 51°13.968 2°48.043 103.6 4.5 114 11.6
2011-06-01 08:50:14 51°13.966 2°48.05 103.4 4.5 115 11.7
2011-06-01 08:50:19 51°13.964 2°48.059 103.4 4.5 114 11.6
2011-06-01 08:50:25 51°13.961 2°48.07 103.2 4.5 113 11.5
2011-06-01 08:50:30 51°13.959 2°48.079 102.9 4.5 113 11.6
2011-06-01 08:50:34 51°13.957 2°48.086 102.7 4.5 114 11.7
2011-06-01 08:50:39 51°13.955 2°48.095 102.3 4.5 113 11.7
2011-06-01 08:50:44 51°13.952 2°48.105 102.4 4.5 114 11.8
2011-06-01 08:50:50 51°13.949 2°48.116 102.4 4.5 113 11.7
2011-06-01 08:50:54 51°13.947 2°48.123 102.2 4.4 112 11.6
2011-06-01 08:50:59 51°13.944 2°48.132 102 4.4 112 11.6
2011-06-01 08:51:04 51°13.942 2°48.141 101.7 4.5 112 11.7
2011-06-01 08:51:10 51°13.94 2°48.153 101.6 4.5 111 11.5
2011-06-01 08:51:14 51°13.938 2°48.16 101.6 4.5 112 11.5
2011-06-01 08:51:20 51°13.935 2°48.171 101.3 4.5 112 11.6
2011-06-01 08:51:25 51°13.933 2°48.18 101.4 4.5 112 11.7
2011-06-01 08:51:30 51°13.931 2°48.189 101.3 4.4 111 11.6
2011-06-01 08:51:34 51°13.929 2°48.196 101.4 4.3 112 11.8
2011-06-01 08:51:40 51°13.926 2°48.207 101.2 4.3 111 11.6
2011-06-01 08:51:45 51°13.924 2°48.215 101.1 4.3 112 11.5
2011-06-01 08:51:50 51°13.922 2°48.224 100.9 4.1 112 11.6
2011-06-01 08:51:54 51°13.92 2°48.23 100.9 4 112 11.6
2011-06-01 08:51:59 51°13.918 2°48.239 101 4 111 11.6
2011-06-01 08:52:05 51°13.916 2°48.248 100.8 3.9 113 11.8
2011-06-01 08:52:10 51°13.914 2°48.256 100.7 3.9 112 11.7
2011-06-01 08:52:14 51°13.912 2°48.263 100.4 3.9 112 11.6
2011-06-01 08:52:20 51°13.91 2°48.272 100.2 3.8 112 11.6
2011-06-01 08:52:25 51°13.908 2°48.281 100.2 3.9 112 11.6
2011-06-01 08:52:30 51°13.906 2°48.288 100.2 3.8 111 11.6
2011-06-01 08:52:34 51°13.904 2°48.295 99.9 3.8 112 11.6
2011-06-01 08:52:39 51°13.902 2°48.303 99.9 3.9 111 11.5
2011-06-01 08:52:45 51°13.9 2°48.312 99.5 3.8 112 11.6
2011-06-01 08:52:50 51°13.899 2°48.32 99.5 3.7 110 11.5
2011-06-01 08:52:54 51°13.897 2°48.326 99.5 3.8 111 11.5
2011-06-01 08:52:59 51°13.895 2°48.334 99.2 3.7 110 11.5
2011-06-01 08:53:04 51°13.893 2°48.342 99 3.7 111 11.5
2011-06-01 08:53:10 51°13.891 2°48.351 98.9 3.7 110 11.6
2011-06-01 08:53:14 51°13.89 2°48.357 98.7 3.7 111 11.5
2011-06-01 08:53:19 51°13.888 2°48.365 98.6 3.7 109 11.5
2011-06-01 08:53:24 51°13.886 2°48.372 98.2 3.7 111 11.6
2011-06-01 08:53:29 51°13.885 2°48.38 97.7 3.7 109 11.4